Kraemer, Louisiana
Current Conditions -  °F | °C
As of 4:55 PM on Saturday 20 Dec 2014 (Local Time) from K1L0 Reporting Station
Overcast Overcast  
Wind Chill: 53°   Ceiling: 900
Heat Index: 53°   Visibility: 10mi
Dew Point: 48°   Wind: 8mph
Humidity: 85%   Direction: 20°NNE
Pressure: 30.13"   Gusts: NA
Location:  29.87°N, 90.7°W
Report Text: K1L0 202255Z AUTO 02007KT 10SM OVC009 12/09 A3013 RMK AO2 P0001 T01150090
Loading
Personal Weather Stations






























Interactive Weather Map New forecast layout! Learn more

10-Day Weather Forecast

Advertisements
Track Severe Weather on mobile